createdAt,value
2019-06-26T00:00:36.474Z,21.60
2019-06-26T00:03:05.621Z,21.60
2019-06-26T00:05:34.354Z,21.60
2019-06-26T00:08:02.996Z,21.60
2019-06-26T00:10:31.723Z,21.50
2019-06-26T00:13:00.385Z,21.60
2019-06-26T00:15:30.339Z,21.60
2019-06-26T00:17:59.403Z,21.60
2019-06-26T00:20:28.044Z,21.60
2019-06-26T00:22:56.933Z,21.60
2019-06-26T00:25:26.276Z,21.70
2019-06-26T00:27:56.184Z,21.70
2019-06-26T00:30:24.973Z,21.70
2019-06-26T00:32:53.969Z,21.70
2019-06-26T00:35:22.653Z,21.60
2019-06-26T00:37:51.354Z,21.70
2019-06-26T00:40:20.426Z,21.70
2019-06-26T00:42:49.067Z,21.70
2019-06-26T00:45:18.161Z,21.70
2019-06-26T00:47:46.964Z,21.70
2019-06-26T00:50:15.684Z,21.70
2019-06-26T00:52:44.336Z,21.70
2019-06-26T00:55:13.048Z,21.70
2019-06-26T00:57:42.077Z,21.60
2019-06-26T01:00:11.392Z,21.60
2019-06-26T01:02:40.246Z,21.60
2019-06-26T01:05:13.544Z,21.60
2019-06-26T01:07:42.272Z,21.50
2019-06-26T01:10:12.140Z,21.50
2019-06-26T01:12:40.808Z,21.50
2019-06-26T01:15:09.517Z,21.50
2019-06-26T01:17:38.496Z,21.50
2019-06-26T01:20:08.352Z,21.40
2019-06-26T01:22:37.127Z,21.40
2019-06-26T01:25:05.908Z,21.40
2019-06-26T01:27:34.891Z,21.30
2019-06-26T01:30:04.807Z,21.30
2019-06-26T01:32:33.486Z,21.30
2019-06-26T01:35:02.198Z,21.20
2019-06-26T01:37:30.809Z,21.20
2019-06-26T01:39:59.652Z,21.20
2019-06-26T01:42:28.286Z,21.20
2019-06-26T01:44:57.052Z,21.20
2019-06-26T01:47:26.127Z,21.10
2019-06-26T01:49:55.288Z,21.00
2019-06-26T01:52:23.957Z,21.00
2019-06-26T01:54:52.648Z,21.00
2019-06-26T01:57:21.691Z,20.90
2019-06-26T01:59:50.418Z,20.90
2019-06-26T02:02:19.163Z,20.90
2019-06-26T02:04:47.881Z,20.90
2019-06-26T02:07:16.510Z,20.90
2019-06-26T02:09:45.516Z,20.80
2019-06-26T02:12:14.208Z,20.90
2019-06-26T02:14:43.046Z,20.90
2019-06-26T02:17:11.972Z,20.90
2019-06-26T02:19:41.621Z,20.90
2019-06-26T02:22:10.264Z,20.90
2019-06-26T02:24:39.227Z,20.90
2019-06-26T02:27:07.967Z,20.90
2019-06-26T02:29:37.052Z,20.90
2019-06-26T02:32:05.737Z,20.90
2019-06-26T02:34:34.833Z,20.80
2019-06-26T02:37:03.497Z,20.90
2019-06-26T02:39:32.204Z,20.90
2019-06-26T02:42:00.881Z,20.90
2019-06-26T02:44:46.905Z,20.90
2019-06-26T02:47:17.657Z,20.90
2019-06-26T02:49:30.648Z,20.90
2019-06-26T02:51:59.749Z,20.90
2019-06-26T02:54:28.411Z,20.90
2019-06-26T02:56:57.534Z,20.90
2019-06-26T02:59:26.615Z,20.90
2019-06-26T03:01:55.697Z,20.80
2019-06-26T03:04:24.376Z,20.80
2019-06-26T03:06:53.140Z,20.80
2019-06-26T03:09:21.887Z,20.80
2019-06-26T03:11:50.865Z,20.80
2019-06-26T03:14:19.693Z,20.80
2019-06-26T03:16:49.553Z,20.70
2019-06-26T03:19:18.164Z,20.70
2019-06-26T03:21:46.816Z,20.70
2019-06-26T03:24:15.507Z,20.70
2019-06-26T03:26:44.241Z,20.70
2019-06-26T03:29:12.873Z,20.70
2019-06-26T03:31:41.592Z,20.70
2019-06-26T03:34:10.303Z,20.70
2019-06-26T03:36:40.184Z,20.60
2019-06-26T03:39:08.936Z,20.60
2019-06-26T03:41:37.625Z,20.60
2019-06-26T03:44:06.834Z,20.50
2019-06-26T03:46:35.832Z,20.50
2019-06-26T03:49:04.927Z,20.50
2019-06-26T03:51:33.585Z,20.50
2019-06-26T03:54:02.716Z,20.50
2019-06-26T03:56:31.435Z,20.50
2019-06-26T03:59:00.203Z,20.50
2019-06-26T04:01:29.219Z,20.50
2019-06-26T04:03:58.023Z,20.50
2019-06-26T04:06:27.006Z,20.50
2019-06-26T04:08:55.645Z,20.50
2019-06-26T04:11:24.287Z,20.50
2019-06-26T04:13:53.015Z,20.40
2019-06-26T04:16:21.758Z,20.40
2019-06-26T04:18:50.779Z,20.40
2019-06-26T04:21:19.540Z,20.30
2019-06-26T04:23:48.192Z,20.30
2019-06-26T04:26:16.899Z,20.20
2019-06-26T04:28:45.940Z,20.20
2019-06-26T04:31:14.615Z,20.30
2019-06-26T04:33:43.326Z,20.30
2019-06-26T04:36:11.991Z,20.30
2019-06-26T04:38:40.712Z,20.20
2019-06-26T04:41:09.358Z,20.20
2019-06-26T04:43:38.078Z,20.30
2019-06-26T04:46:07.165Z,20.40
2019-06-26T04:48:35.847Z,20.50
2019-06-26T04:51:04.948Z,20.50
2019-06-26T04:53:33.647Z,20.50
2019-06-26T04:56:02.312Z,20.40
2019-06-26T04:58:31.054Z,20.30
2019-06-26T05:01:00.123Z,20.30
2019-06-26T05:03:29.307Z,20.30
2019-06-26T05:05:57.999Z,20.40
2019-06-26T05:08:27.092Z,20.40
2019-06-26T05:10:56.051Z,20.50
2019-06-26T05:13:24.817Z,20.50
2019-06-26T05:15:53.547Z,20.50
2019-06-26T05:18:22.235Z,20.40
2019-06-26T05:20:51.225Z,20.40
2019-06-26T05:23:19.909Z,20.30
2019-06-26T05:25:48.568Z,20.30
2019-06-26T05:28:17.243Z,20.30
2019-06-26T05:30:45.955Z,20.40
2019-06-26T05:33:14.684Z,20.40
2019-06-26T05:35:44.646Z,20.50
2019-06-26T05:38:13.321Z,20.60
2019-06-26T05:40:42.432Z,20.50
2019-06-26T05:43:11.154Z,20.50
2019-06-26T05:45:40.207Z,20.50
2019-06-26T05:48:08.908Z,20.50
2019-06-26T05:50:37.596Z,20.50
2019-06-26T05:53:06.707Z,20.50
2019-06-26T05:55:35.789Z,20.50
2019-06-26T05:58:04.871Z,20.50
2019-06-26T06:00:33.574Z,20.50
2019-06-26T06:03:02.186Z,20.60
2019-06-26T06:05:31.133Z,20.60
2019-06-26T06:08:00.115Z,20.70
2019-06-26T06:10:28.829Z,20.80
2019-06-26T06:12:57.901Z,20.80
2019-06-26T06:15:26.936Z,20.90
2019-06-26T06:17:55.585Z,21.00
2019-06-26T06:20:26.232Z,21.10
2019-06-26T06:22:55.004Z,21.30
2019-06-26T06:25:23.660Z,21.50
2019-06-26T06:27:52.472Z,21.60
2019-06-26T06:30:21.786Z,21.60
2019-06-26T06:32:50.853Z,21.60
2019-06-26T06:35:19.688Z,21.60
2019-06-26T06:37:49.589Z,21.50
2019-06-26T06:40:18.332Z,21.50
2019-06-26T06:42:47.375Z,21.50
2019-06-26T06:45:16.568Z,21.50
2019-06-26T06:47:45.274Z,21.50
2019-06-26T06:50:14.424Z,21.60
2019-06-26T06:52:43.336Z,21.60
2019-06-26T06:55:12.132Z,21.60
2019-06-26T06:57:41.221Z,21.60
2019-06-26T07:00:10.216Z,21.70
2019-06-26T07:02:38.898Z,21.70
2019-06-26T07:05:08.235Z,21.80
2019-06-26T07:07:37.157Z,21.90
2019-06-26T07:10:06.737Z,21.90
2019-06-26T07:12:35.828Z,22.00
2019-06-26T07:15:08.028Z,22.10
2019-06-26T07:17:36.754Z,22.40
2019-06-26T07:20:05.789Z,22.80
2019-06-26T07:22:34.639Z,23.10
2019-06-26T07:25:03.511Z,23.20
2019-06-26T07:27:32.425Z,23.10
2019-06-26T07:30:01.412Z,23.10
2019-06-26T07:32:30.274Z,23.10
2019-06-26T07:34:59.260Z,23.10
2019-06-26T07:37:29.252Z,23.20
2019-06-26T07:40:01.752Z,23.50
2019-06-26T07:42:28.934Z,24.00
2019-06-26T07:44:58.168Z,24.20
2019-06-26T07:47:41.845Z,24.50
2019-06-26T07:49:57.553Z,24.70
2019-06-26T07:52:26.666Z,24.90
2019-06-26T07:54:55.736Z,25.00
2019-06-26T07:57:24.430Z,25.40
2019-06-26T07:59:53.110Z,25.50
2019-06-26T08:02:22.245Z,25.50
2019-06-26T08:04:51.312Z,25.50
2019-06-26T08:07:20.044Z,25.60
2019-06-26T08:09:48.750Z,25.40
2019-06-26T08:12:17.531Z,25.40
2019-06-26T08:14:46.370Z,25.40
2019-06-26T08:17:15.077Z,25.60
2019-06-26T08:19:45.048Z,25.70
2019-06-26T08:22:13.942Z,25.90
2019-06-26T08:24:42.823Z,26.20
2019-06-26T08:27:13.217Z,26.40
2019-06-26T08:29:42.028Z,26.50
2019-06-26T08:32:11.504Z,26.50
2019-06-26T08:34:40.449Z,26.60
2019-06-26T08:37:09.126Z,26.70
2019-06-26T08:39:37.824Z,26.60
2019-06-26T08:42:06.513Z,26.40
2019-06-26T08:44:35.217Z,26.30
2019-06-26T08:47:04.274Z,26.40
2019-06-26T08:49:32.980Z,26.40
2019-06-26T08:52:01.909Z,26.50
2019-06-26T08:54:30.657Z,26.60
2019-06-26T08:56:59.299Z,26.60
2019-06-26T08:59:28.184Z,26.50
2019-06-26T09:01:57.222Z,26.70
2019-06-26T09:04:26.341Z,26.80
2019-06-26T09:06:55.473Z,27.10
2019-06-26T09:09:24.129Z,27.10
2019-06-26T09:11:53.366Z,27.20
2019-06-26T09:14:22.104Z,27.40
2019-06-26T09:16:50.965Z,27.50
2019-06-26T09:19:19.756Z,27.80
2019-06-26T09:21:49.020Z,27.80
2019-06-26T09:24:17.879Z,27.60
2019-06-26T09:26:46.573Z,27.40
2019-06-26T09:29:15.264Z,27.30
2019-06-26T09:31:43.939Z,27.40
2019-06-26T09:34:12.700Z,27.50
2019-06-26T09:36:41.747Z,27.60
2019-06-26T09:39:10.781Z,27.80
2019-06-26T09:41:39.464Z,27.80
2019-06-26T09:44:08.173Z,28.00
2019-06-26T09:46:36.908Z,28.20
2019-06-26T09:49:05.646Z,28.10
2019-06-26T09:51:34.708Z,28.10
2019-06-26T09:54:03.907Z,28.10
2019-06-26T09:56:32.895Z,28.10
2019-06-26T09:59:01.573Z,28.20
2019-06-26T10:01:30.295Z,28.30
2019-06-26T10:03:59.020Z,28.20
2019-06-26T10:06:28.084Z,28.10
2019-06-26T10:08:57.243Z,28.20
2019-06-26T10:11:26.404Z,28.20
2019-06-26T10:13:55.395Z,28.10
2019-06-26T10:16:24.043Z,28.10
2019-06-26T10:19:08.849Z,28.00
2019-06-26T10:21:23.754Z,28.10
2019-06-26T10:23:52.580Z,28.20
2019-06-26T10:26:21.227Z,28.00
2019-06-26T10:28:49.921Z,28.10
2019-06-26T10:31:19.064Z,28.20
2019-06-26T10:33:48.114Z,28.30
2019-06-26T10:36:16.804Z,28.40
2019-06-26T10:38:45.471Z,28.40
2019-06-26T10:41:14.268Z,28.40
2019-06-26T10:43:42.913Z,28.40
2019-06-26T10:46:12.031Z,28.10
2019-06-26T10:48:41.124Z,28.00
2019-06-26T10:51:10.237Z,27.90
2019-06-26T10:53:39.349Z,27.90
2019-06-26T10:56:09.181Z,28.00
2019-06-26T10:58:38.251Z,28.00
2019-06-26T11:01:07.033Z,28.10
2019-06-26T11:03:36.025Z,28.10
2019-06-26T11:06:04.740Z,28.10
2019-06-26T11:08:33.415Z,28.00
2019-06-26T11:11:02.517Z,27.90
2019-06-26T11:13:31.233Z,27.90
2019-06-26T11:15:59.883Z,27.90
2019-06-26T11:18:28.587Z,28.10
2019-06-26T11:20:57.384Z,28.00
2019-06-26T11:23:26.380Z,28.00
2019-06-26T11:25:55.155Z,28.10
2019-06-26T11:28:23.801Z,28.10
2019-06-26T11:30:53.029Z,28.10
2019-06-26T11:33:21.905Z,28.20
2019-06-26T11:35:50.586Z,28.20
2019-06-26T11:38:19.525Z,28.20
2019-06-26T11:40:48.395Z,28.20
2019-06-26T11:43:17.025Z,28.20
2019-06-26T11:45:45.746Z,28.20
2019-06-26T11:48:14.567Z,28.30
2019-06-26T11:50:43.232Z,28.30
2019-06-26T11:53:12.208Z,28.30
2019-06-26T11:55:40.929Z,28.20
2019-06-26T11:58:09.579Z,28.20
2019-06-26T12:00:41.618Z,28.30
2019-06-26T12:03:09.178Z,28.50
2019-06-26T12:05:38.241Z,28.60
2019-06-26T12:08:07.409Z,28.50
2019-06-26T12:10:36.369Z,28.50
2019-06-26T12:13:06.295Z,28.40
2019-06-26T12:15:36.240Z,28.40
2019-06-26T12:18:04.939Z,28.40
2019-06-26T12:20:33.608Z,28.40
2019-06-26T12:23:02.228Z,28.50
2019-06-26T12:25:30.951Z,28.50
2019-06-26T12:27:59.676Z,28.40
2019-06-26T12:30:28.390Z,28.30
2019-06-26T12:33:03.415Z,28.30
2019-06-26T12:35:27.907Z,28.40
2019-06-26T12:37:57.853Z,28.60
2019-06-26T12:40:30.021Z,28.70
2019-06-26T12:42:57.556Z,28.70
2019-06-26T12:45:26.589Z,28.50
2019-06-26T12:47:55.268Z,28.40
2019-06-26T12:50:34.755Z,28.30
2019-06-26T12:52:54.690Z,28.30
2019-06-26T12:55:23.441Z,28.30
2019-06-26T12:57:52.536Z,28.40
2019-06-26T13:00:21.659Z,28.50
2019-06-26T13:02:50.652Z,28.40
2019-06-26T13:05:19.396Z,28.30
2019-06-26T13:07:48.057Z,28.30
2019-06-26T13:10:16.876Z,28.30
2019-06-26T13:12:46.201Z,28.30
2019-06-26T13:15:15.574Z,28.30
2019-06-26T13:17:44.198Z,28.40
2019-06-26T13:20:13.695Z,28.50
2019-06-26T13:22:42.843Z,28.40
2019-06-26T13:25:11.474Z,28.40
2019-06-26T13:27:40.568Z,28.50
2019-06-26T13:30:09.670Z,28.50
2019-06-26T13:32:38.563Z,28.40
2019-06-26T13:35:07.570Z,28.50
2019-06-26T13:37:36.347Z,28.60
2019-06-26T13:40:06.026Z,28.70
2019-06-26T13:42:35.864Z,28.70
2019-06-26T13:45:05.768Z,28.80
2019-06-26T13:47:34.380Z,28.80
2019-06-26T13:50:04.524Z,28.80
2019-06-26T13:52:33.416Z,28.90
2019-06-26T13:55:02.085Z,29.00
2019-06-26T13:57:30.756Z,29.10
2019-06-26T13:59:59.452Z,29.00
2019-06-26T14:02:28.278Z,29.00
2019-06-26T14:04:57.341Z,29.00
2019-06-26T14:07:26.188Z,29.00
2019-06-26T14:09:55.146Z,29.10
2019-06-26T14:12:24.192Z,29.10
2019-06-26T14:14:57.685Z,29.00
2019-06-26T14:17:23.763Z,28.90
2019-06-26T14:19:52.723Z,28.90
2019-06-26T14:22:21.546Z,28.90
2019-06-26T14:24:53.882Z,28.90
2019-06-26T14:27:20.512Z,28.90
2019-06-26T14:29:49.520Z,28.90
2019-06-26T14:32:18.193Z,28.80
2019-06-26T14:34:46.932Z,28.80
2019-06-26T14:37:15.581Z,28.80
2019-06-26T14:39:44.260Z,28.90
2019-06-26T14:42:12.992Z,28.90
2019-06-26T14:44:42.038Z,28.90
2019-06-26T14:47:10.788Z,28.90
2019-06-26T14:49:40.660Z,28.90
2019-06-26T14:52:09.325Z,28.90
2019-06-26T14:54:38.028Z,28.90
2019-06-26T14:57:06.699Z,28.80
2019-06-26T14:59:35.309Z,28.80
2019-06-26T15:02:04.194Z,28.80
2019-06-26T15:04:33.151Z,28.90
2019-06-26T15:07:02.721Z,28.90
2019-06-26T15:09:31.761Z,28.80
2019-06-26T15:12:00.478Z,28.80
2019-06-26T15:14:29.174Z,28.80
2019-06-26T15:16:57.872Z,28.70
2019-06-26T15:19:27.745Z,28.70
2019-06-26T15:21:58.799Z,28.60
2019-06-26T15:24:27.192Z,28.60
2019-06-26T15:26:55.969Z,28.60
2019-06-26T15:29:25.088Z,28.70
2019-06-26T15:31:53.716Z,28.70
2019-06-26T15:34:26.117Z,28.70
2019-06-26T15:36:53.060Z,28.60
2019-06-26T15:39:21.737Z,28.70
2019-06-26T15:41:50.516Z,28.70
2019-06-26T15:44:19.509Z,28.80
2019-06-26T15:46:48.196Z,28.80
2019-06-26T15:49:16.921Z,28.80
2019-06-26T15:51:45.573Z,28.80
2019-06-26T15:54:14.308Z,28.80
2019-06-26T15:56:42.945Z,28.70
2019-06-26T15:59:11.625Z,28.80
2019-06-26T16:01:40.328Z,28.80
2019-06-26T16:04:08.983Z,28.70
2019-06-26T16:06:37.689Z,28.70
2019-06-26T16:09:06.741Z,28.60
2019-06-26T16:11:35.373Z,28.60
2019-06-26T16:14:04.405Z,28.60
2019-06-26T16:16:34.921Z,28.50
2019-06-26T16:19:05.179Z,28.50
2019-06-26T16:21:33.997Z,28.50
2019-06-26T16:24:04.186Z,28.40
2019-06-26T16:26:33.013Z,28.40
2019-06-26T16:29:01.707Z,28.40
2019-06-26T16:31:30.409Z,28.40
2019-06-26T16:33:59.060Z,28.30
2019-06-26T16:36:27.746Z,28.30
2019-06-26T16:38:56.495Z,28.20
2019-06-26T16:41:25.632Z,28.30
2019-06-26T16:43:54.628Z,28.30
2019-06-26T16:46:23.325Z,28.30
2019-06-26T16:48:52.009Z,28.30
2019-06-26T16:51:20.685Z,28.20
2019-06-26T16:53:49.372Z,28.20
2019-06-26T16:56:18.065Z,28.10
2019-06-26T16:58:46.760Z,28.00
2019-06-26T17:01:15.388Z,27.90
2019-06-26T17:03:44.120Z,27.90
2019-06-26T17:06:12.813Z,27.80
2019-06-26T17:08:41.526Z,27.70
2019-06-26T17:11:10.132Z,27.80
2019-06-26T17:13:38.873Z,27.80
2019-06-26T17:16:07.555Z,27.70
2019-06-26T17:18:36.257Z,27.50
2019-06-26T17:21:04.922Z,27.50
2019-06-26T17:23:33.646Z,27.50
2019-06-26T17:26:03.573Z,27.40
2019-06-26T17:28:32.280Z,27.40
2019-06-26T17:31:01.285Z,27.30
2019-06-26T17:33:30.165Z,27.20
2019-06-26T17:35:59.062Z,27.20
2019-06-26T17:38:27.765Z,27.30
2019-06-26T17:40:59.364Z,27.30
2019-06-26T17:43:26.790Z,27.40
2019-06-26T17:45:55.454Z,27.40
2019-06-26T17:48:24.578Z,27.20
2019-06-26T17:50:53.188Z,27.10
2019-06-26T17:53:22.389Z,27.00
2019-06-26T17:55:51.513Z,26.90
2019-06-26T17:58:20.133Z,26.80
2019-06-26T18:00:48.802Z,26.80
2019-06-26T18:03:17.450Z,26.70
2019-06-26T18:05:46.224Z,26.60
2019-06-26T18:08:14.900Z,26.50
2019-06-26T18:10:44.514Z,26.30
2019-06-26T18:13:13.452Z,26.20
2019-06-26T18:15:42.149Z,26.10
2019-06-26T18:18:10.865Z,26.10
2019-06-26T18:20:39.617Z,26.00
2019-06-26T18:23:08.279Z,25.90
2019-06-26T18:25:36.933Z,25.80
2019-06-26T18:28:05.674Z,25.70
2019-06-26T18:30:34.364Z,25.50
2019-06-26T18:33:04.279Z,25.30
2019-06-26T18:35:32.968Z,25.20
2019-06-26T18:38:01.731Z,25.20
2019-06-26T18:40:30.759Z,25.20
2019-06-26T18:42:59.385Z,25.20
2019-06-26T18:45:28.564Z,25.10
2019-06-26T18:47:58.876Z,25.00
2019-06-26T18:50:27.524Z,24.90
2019-06-26T18:52:56.163Z,24.90
2019-06-26T18:55:24.902Z,24.90
2019-06-26T18:57:53.861Z,24.70
2019-06-26T19:00:24.204Z,24.70
2019-06-26T19:02:53.832Z,24.60
2019-06-26T19:05:22.533Z,24.60
2019-06-26T19:07:51.607Z,24.60
2019-06-26T19:10:20.306Z,24.50
2019-06-26T19:12:48.980Z,24.50
2019-06-26T19:15:19.172Z,24.40
2019-06-26T19:17:47.810Z,24.40
2019-06-26T19:20:16.679Z,24.30
2019-06-26T19:22:47.452Z,24.40
2019-06-26T19:25:15.760Z,24.40
2019-06-26T19:27:44.399Z,24.30
2019-06-26T19:30:14.745Z,24.30
2019-06-26T19:32:43.629Z,24.10
2019-06-26T19:35:20.535Z,24.10
2019-06-26T19:37:43.689Z,24.10
2019-06-26T19:40:12.553Z,24.00
2019-06-26T19:42:41.437Z,23.90
2019-06-26T19:45:11.064Z,23.90
2019-06-26T19:47:40.037Z,23.80
2019-06-26T19:50:10.497Z,23.70
2019-06-26T19:52:39.221Z,23.50
2019-06-26T19:55:08.572Z,23.50
2019-06-26T19:57:37.238Z,23.40
2019-06-26T20:00:10.762Z,23.30
2019-06-26T20:02:39.509Z,23.20
2019-06-26T20:05:08.463Z,23.10
2019-06-26T20:07:37.705Z,22.90
2019-06-26T20:10:06.421Z,22.70
2019-06-26T20:12:35.360Z,22.70
2019-06-26T20:15:07.652Z,22.70
2019-06-26T20:17:36.148Z,22.70
2019-06-26T20:20:06.438Z,22.70
2019-06-26T20:22:35.206Z,22.60
2019-06-26T20:25:05.368Z,22.40
2019-06-26T20:27:35.145Z,22.30
2019-06-26T20:30:04.993Z,22.20
2019-06-26T20:32:33.711Z,22.20
2019-06-26T20:35:02.757Z,22.10
2019-06-26T20:37:31.389Z,22.10
2019-06-26T20:40:00.188Z,22.10
2019-06-26T20:42:28.975Z,22.00
2019-06-26T20:44:57.941Z,22.00
2019-06-26T20:47:27.046Z,22.00
2019-06-26T20:49:55.688Z,22.00
2019-06-26T20:52:24.390Z,21.90
2019-06-26T20:55:00.958Z,21.90
2019-06-26T20:57:23.813Z,21.90
2019-06-26T20:59:52.424Z,21.90
2019-06-26T21:02:21.187Z,21.80
2019-06-26T21:04:49.841Z,21.80
2019-06-26T21:07:18.556Z,21.80
2019-06-26T21:09:47.254Z,21.80
2019-06-26T21:12:16.736Z,21.70
2019-06-26T21:14:45.357Z,21.70
2019-06-26T21:17:14.103Z,21.60
2019-06-26T21:19:42.819Z,21.70
2019-06-26T21:22:12.813Z,21.70
2019-06-26T21:24:41.808Z,21.60
2019-06-26T21:27:10.497Z,21.60
2019-06-26T21:29:39.141Z,21.70
2019-06-26T21:32:07.862Z,21.50
2019-06-26T21:34:36.548Z,21.50
2019-06-26T21:37:05.217Z,21.50
2019-06-26T21:39:33.857Z,21.40
2019-06-26T21:42:02.487Z,21.40
2019-06-26T21:44:31.128Z,21.40
2019-06-26T21:46:59.760Z,21.30
2019-06-26T21:49:28.411Z,21.40
2019-06-26T21:51:57.152Z,21.40
2019-06-26T21:54:25.783Z,21.30
2019-06-26T21:56:54.711Z,21.20
2019-06-26T21:59:23.451Z,21.10
2019-06-26T22:01:52.107Z,21.10
2019-06-26T22:04:20.900Z,21.20
2019-06-26T22:06:49.573Z,21.10
2019-06-26T22:09:18.579Z,21.10
2019-06-26T22:11:47.276Z,21.00
2019-06-26T22:14:15.925Z,21.00
2019-06-26T22:16:44.666Z,21.00
2019-06-26T22:19:13.345Z,21.10
2019-06-26T22:21:41.981Z,21.00
2019-06-26T22:24:10.598Z,21.00
2019-06-26T22:26:39.910Z,20.90
2019-06-26T22:29:08.873Z,21.00
2019-06-26T22:31:37.636Z,20.90
2019-06-26T22:34:06.378Z,20.90
2019-06-26T22:36:35.004Z,20.90
2019-06-26T22:39:04.448Z,20.80
2019-06-26T22:41:33.222Z,20.80
2019-06-26T22:44:01.915Z,20.70
2019-06-26T22:46:30.737Z,20.60
2019-06-26T22:49:00.528Z,20.60
2019-06-26T22:51:29.172Z,20.60
2019-06-26T22:53:57.865Z,20.60
2019-06-26T22:56:26.562Z,20.50
2019-06-26T22:58:55.236Z,20.50
2019-06-26T23:01:23.881Z,20.60
2019-06-26T23:03:52.613Z,20.60
2019-06-26T23:06:21.301Z,20.60
2019-06-26T23:08:49.986Z,20.70
2019-06-26T23:11:18.681Z,20.60
2019-06-26T23:13:47.370Z,20.60
2019-06-26T23:16:15.993Z,20.50
2019-06-26T23:18:44.720Z,20.50
2019-06-26T23:21:13.450Z,20.40
2019-06-26T23:23:42.078Z,20.40
2019-06-26T23:26:23.577Z,20.30
2019-06-26T23:28:41.518Z,20.30
2019-06-26T23:31:10.239Z,20.30
2019-06-26T23:33:38.881Z,20.30
2019-06-26T23:36:07.602Z,20.20
2019-06-26T23:38:36.263Z,20.20
2019-06-26T23:41:05.002Z,20.20
2019-06-26T23:43:33.624Z,20.20
2019-06-26T23:46:02.335Z,20.20
2019-06-26T23:48:31.406Z,20.30
2019-06-26T23:51:00.110Z,20.10
2019-06-26T23:53:28.747Z,20.10
2019-06-26T23:55:57.479Z,20.10
2019-06-26T23:58:27.510Z,20.10
